Time;durP1;ratioP1;P1;durP2;ratioP2;P2;SDS_P1;SDS_P2;PMS_P1;PMS_P2;Temp;Humidity;BMP_temperature;BMP_pressure;BME280_temperature;BME280_humidity;BME280_pressure;Samples;Min_cycle;Max_cycle;Signal;HPM_P1;HPM_P2
2022/06/14 00:00:55;;;;;;;21.08;4.10;;;11.30;99.90;;;;;;5056217;28;20455;-82
2022/06/14 00:03:24;;;;;;;18.90;3.95;;;11.30;99.90;;;;;;5056763;28;20036;-82
2022/06/14 00:05:50;;;;;;;11.23;3.55;;;11.50;99.90;;;;;;5072718;28;20063;-80
2022/06/14 00:08:16;;;;;;;19.63;3.90;;;11.40;99.90;;;;;;5089520;28;20131;-80
2022/06/14 00:10:43;;;;;;;18.73;3.65;;;11.50;99.90;;;;;;5072568;28;20075;-81
2022/06/14 00:13:10;;;;;;;23.83;4.05;;;11.60;99.90;;;;;;5055451;28;20349;-81
2022/06/14 00:15:39;;;;;;;14.07;3.92;;;11.60;99.90;;;;;;5056703;28;20361;-81
2022/06/14 00:18:05;;;;;;;16.65;3.65;;;11.60;99.90;;;;;;5073062;28;20305;-82
2022/06/14 00:20:31;;;;;;;17.20;3.42;;;11.60;99.90;;;;;;5055798;28;20044;-81
2022/06/14 00:22:57;;;;;;;17.35;3.50;;;11.50;99.90;;;;;;5058950;28;20052;-80
2022/06/14 00:25:45;;;;;;;15.77;3.60;;;11.60;99.90;;;;;;5075007;28;20122;-80
2022/06/14 00:28:13;;;;;;;17.95;3.85;;;11.50;99.90;;;;;;5074246;28;20046;-80
2022/06/14 00:30:40;;;;;;;19.00;3.80;;;11.60;99.90;;;;;;5056596;28;20519;-81
2022/06/14 00:33:06;;;;;;;16.65;4.03;;;11.40;99.90;;;;;;5072672;28;20036;-80
2022/06/14 00:35:32;;;;;;;16.10;3.90;;;11.40;99.90;;;;;;5055434;28;20041;-78
2022/06/14 00:38:00;;;;;;;20.00;4.28;;;11.40;99.90;;;;;;5057284;28;20124;-77
2022/06/14 00:40:29;;;;;;;14.88;3.83;;;11.40;99.90;;;;;;5075646;28;20387;-81
2022/06/14 00:42:55;;;;;;;18.00;4.03;;;11.40;99.90;;;;;;5073666;28;20364;-82
2022/06/14 00:45:21;;;;;;;16.35;4.00;;;11.50;99.90;;;;;;5055637;28;20185;-81
2022/06/14 00:48:00;;;;;;;15.85;3.85;;;11.40;99.90;;;;;;5073077;28;20550;-80
2022/06/14 00:50:31;;;;;;;22.17;4.28;;;11.50;99.90;;;;;;5054857;28;20037;-82
2022/06/14 00:53:22;;;;;;;21.88;3.97;;;11.50;99.90;;;;;;5018520;28;20187;-83
2022/06/14 00:55:56;;;;;;;18.95;4.13;;;11.50;99.90;;;;;;5065249;28;20037;-82
2022/06/14 00:58:32;;;;;;;20.90;4.07;;;11.50;99.90;;;;;;5038504;28;20051;-82
2022/06/14 01:01:05;;;;;;;20.98;4.35;;;11.60;99.90;;;;;;5055577;28;20752;-82
2022/06/14 01:03:39;;;;;;;20.95;4.53;;;11.50;99.90;;;;;;5073109;28;20028;-80
2022/06/14 01:06:11;;;;;;;20.08;3.95;;;11.40;99.90;;;;;;5054563;28;20036;-81
2022/06/14 01:08:48;;;;;;;18.30;4.25;;;11.40;99.90;;;;;;5054992;28;20048;-82
2022/06/14 01:11:44;;;;;;;17.80;4.07;;;11.40;99.90;;;;;;5054962;28;20513;-82
2022/06/14 01:14:15;;;;;;;17.25;4.10;;;11.30;99.90;;;;;;5037828;28;20040;-82
2022/06/14 01:16:41;;;;;;;12.50;3.75;;;11.20;99.90;;;;;;5054287;28;20094;-81
2022/06/14 01:19:14;;;;;;;15.25;3.95;;;11.30;99.90;;;;;;5072603;28;20056;-82
2022/06/14 01:21:40;;;;;;;15.70;4.00;;;11.20;99.90;;;;;;5070503;28;20119;-82
2022/06/14 01:24:06;;;;;;;14.52;3.67;;;11.20;99.90;;;;;;5073826;28;20110;-82
2022/06/14 01:26:33;;;;;;;16.60;4.30;;;11.10;99.90;;;;;;5091753;28;20054;-82
2022/06/14 01:29:03;;;;;;;15.75;3.65;;;11.10;99.90;;;;;;5090937;28;20048;-80
2022/06/14 01:31:30;;;;;;;21.95;4.22;;;11.20;99.90;;;;;;5057439;28;20139;-81
2022/06/14 01:34:05;;;;;;;17.00;4.18;;;11.10;99.90;;;;;;5074704;28;20032;-80
2022/06/14 01:36:36;;;;;;;13.65;3.97;;;11.00;99.90;;;;;;5091014;28;20040;-81
2022/06/14 01:39:06;;;;;;;14.93;3.72;;;11.20;99.90;;;;;;5074139;28;20044;-81
2022/06/14 01:41:40;;;;;;;21.77;4.05;;;10.90;99.90;;;;;;5090904;28;20048;-82
2022/06/14 01:47:54;;;;;;;14.32;3.65;;;10.90;99.90;;;;;;5085649;28;20501;-83
2022/06/14 01:54:03;;;;;;;18.77;3.80;;;10.90;99.90;;;;;;5030049;28;20057;-82
2022/06/14 01:56:40;;;;;;;17.60;3.90;;;10.70;99.90;;;;;;5034344;28;20056;-81
2022/06/14 01:59:16;;;;;;;16.38;4.10;;;10.70;99.90;;;;;;5062304;28;20404;-81
2022/06/14 02:01:58;;;;;;;19.88;4.20;;;10.80;99.90;;;;;;5034201;28;20049;-79
2022/06/14 02:04:39;;;;;;;14.40;3.80;;;10.70;99.90;;;;;;5051570;28;20053;-78
2022/06/14 02:07:19;;;;;;;20.10;4.13;;;10.60;99.90;;;;;;5052825;28;20037;-78
2022/06/14 02:10:32;;;;;;;20.27;4.50;;;10.60;99.90;;;;;;5035292;28;20140;-79
2022/06/14 02:13:39;;;;;;;16.30;3.97;;;10.60;99.90;;;;;;4993597;28;20141;-82
2022/06/14 02:16:18;;;;;;;24.98;3.90;;;10.50;99.90;;;;;;4954820;28;20438;-81
2022/06/14 02:18:44;;;;;;;14.23;3.88;;;10.50;99.90;;;;;;4971027;28;20051;-82
2022/06/14 02:21:21;;;;;;;18.65;4.05;;;10.50;99.90;;;;;;4953941;28;20552;-81
2022/06/14 02:23:54;;;;;;;16.13;4.20;;;10.50;99.90;;;;;;4967673;28;20150;-81
2022/06/14 02:26:33;;;;;;;14.93;4.30;;;10.40;99.90;;;;;;4952108;29;20048;-82
2022/06/14 02:29:08;;;;;;;17.05;4.78;;;10.50;99.90;;;;;;4961514;28;20061;-81
2022/06/14 02:31:49;;;;;;;17.35;4.30;;;10.30;99.90;;;;;;4970894;28;20055;-80
2022/06/14 02:34:26;;;;;;;22.90;4.90;;;10.30;99.90;;;;;;4954754;28;20050;-81
2022/06/14 02:37:10;;;;;;;15.73;4.45;;;10.30;99.90;;;;;;4954906;28;20077;-82
2022/06/14 02:39:46;;;;;;;21.73;4.60;;;10.30;99.90;;;;;;4987431;28;20138;-82
2022/06/14 02:42:35;;;;;;;12.90;4.30;;;10.30;99.90;;;;;;4972018;28;20047;-82
2022/06/14 02:45:18;;;;;;;16.58;4.47;;;10.20;99.90;;;;;;4962429;28;20134;-82
2022/06/14 02:47:58;;;;;;;20.75;4.80;;;10.20;99.90;;;;;;4958278;28;20422;-82
2022/06/14 02:50:30;;;;;;;14.63;4.13;;;10.40;99.90;;;;;;5018423;28;20369;-83
2022/06/14 02:53:04;;;;;;;15.45;4.45;;;10.20;99.90;;;;;;5073671;28;20114;-82
2022/06/14 02:55:45;;;;;;;17.13;4.97;;;10.30;99.90;;;;;;5074427;28;20116;-81
2022/06/14 02:58:18;;;;;;;21.50;5.18;;;10.20;99.90;;;;;;5054187;28;20049;-81
2022/06/14 03:01:08;;;;;;;25.13;5.35;;;10.20;99.90;;;;;;5037490;28;20515;-82
2022/06/14 03:03:39;;;;;;;16.38;4.90;;;10.10;99.90;;;;;;5037022;28;20045;-81
2022/06/14 03:06:33;;;;;;;20.48;5.20;;;10.40;99.90;;;;;;5036770;28;20045;-82
2022/06/14 03:09:11;;;;;;;14.05;4.82;;;10.20;99.90;;;;;;5022673;28;20392;-81
2022/06/14 03:11:55;;;;;;;17.23;4.60;;;10.10;99.90;;;;;;5037291;28;20140;-82
2022/06/14 03:14:24;;;;;;;19.97;5.27;;;10.10;99.90;;;;;;5037230;28;20064;-81
2022/06/14 03:17:05;;;;;;;19.90;4.78;;;10.00;99.90;;;;;;5055479;28;20268;-80
2022/06/14 03:19:44;;;;;;;19.10;4.72;;;10.10;99.90;;;;;;5036967;28;20496;-81
2022/06/14 03:22:36;;;;;;;14.88;4.68;;;10.10;99.90;;;;;;5058217;28;20064;-80
2022/06/14 03:25:25;;;;;;;21.73;5.13;;;10.10;99.90;;;;;;5086037;28;20047;-81
2022/06/14 03:28:10;;;;;;;14.73;4.50;;;10.10;99.90;;;;;;5052015;28;20047;-81
2022/06/14 03:30:45;;;;;;;16.52;5.50;;;10.10;99.90;;;;;;5110677;28;20044;-80
2022/06/14 03:33:33;;;;;;;19.95;4.80;;;10.10;99.90;;;;;;5092254;28;20444;-79
2022/06/14 03:35:59;;;;;;;14.07;4.32;;;10.20;99.90;;;;;;5097668;28;20048;-79
2022/06/14 03:38:39;;;;;;;14.35;4.22;;;10.60;99.90;;;;;;5095255;28;20060;-81
2022/06/14 03:41:06;;;;;;;16.70;5.30;;;10.20;99.90;;;;;;5076314;28;20178;-81
2022/06/14 03:43:34;;;;;;;15.15;5.07;;;10.60;99.90;;;;;;5076239;28;20040;-81
2022/06/14 03:46:34;;;;;;;14.18;4.72;;;10.30;99.90;;;;;;5076508;28;20070;-82
2022/06/14 03:49:08;;;;;;;17.40;5.07;;;10.30;99.90;;;;;;4996223;28;20085;-83
2022/06/14 03:51:48;;;;;;;16.95;4.95;;;10.30;99.90;;;;;;4979357;28;20069;-82
2022/06/14 03:54:19;;;;;;;21.58;5.80;;;10.40;99.90;;;;;;5011778;28;20540;-81
2022/06/14 03:57:13;;;;;;;22.63;5.13;;;10.30;99.90;;;;;;5012489;28;20042;-83
2022/06/14 03:59:54;;;;;;;16.45;4.70;;;10.30;99.90;;;;;;4979414;28;20140;-82
2022/06/14 04:05:53;;;;;;;15.43;4.90;;;10.50;99.90;;;;;;4937262;29;20110;-81
2022/06/14 04:08:42;;;;;;;20.92;4.97;;;10.40;99.90;;;;;;4883663;29;20063;-81
2022/06/14 04:11:14;;;;;;;20.92;5.72;;;10.40;99.90;;;;;;4899546;29;20052;-81
2022/06/14 04:14:18;;;;;;;11.65;4.43;;;10.40;99.90;;;;;;4899829;29;20048;-82
2022/06/14 04:16:49;;;;;;;11.75;4.25;;;10.50;99.90;;;;;;4899481;29;20056;-82
2022/06/14 04:19:28;;;;;;;13.15;5.00;;;10.60;99.90;;;;;;4899777;29;20457;-81
2022/06/14 04:22:16;;;;;;;18.45;5.00;;;10.70;99.90;;;;;;4899237;29;20128;-81
2022/06/14 04:25:01;;;;;;;17.00;5.15;;;10.80;99.90;;;;;;4920435;28;20557;-82
2022/06/14 04:27:37;;;;;;;18.48;4.97;;;11.00;99.90;;;;;;4956701;28;20141;-81
2022/06/14 04:30:16;;;;;;;18.92;4.93;;;11.40;99.90;;;;;;4972615;28;20050;-82
2022/06/14 04:32:46;;;;;;;20.80;4.72;;;11.40;99.90;;;;;;4972421;28;20576;-81
2022/06/14 04:35:35;;;;;;;12.90;4.15;;;11.70;99.90;;;;;;4956071;28;20047;-83
2022/06/14 04:38:08;;;;;;;15.07;4.50;;;12.40;99.90;;;;;;4984216;28;20066;-81
2022/06/14 04:40:45;;;;;;;14.10;4.25;;;12.80;99.90;;;;;;4986694;28;20053;-81
2022/06/14 04:43:54;;;;;;;14.00;4.10;;;13.20;99.90;;;;;;5021945;28;20435;-80
2022/06/14 04:46:32;;;;;;;14.77;4.40;;;13.90;99.90;;;;;;5054542;28;20137;-81
2022/06/14 04:49:09;;;;;;;15.90;4.15;;;14.40;99.90;;;;;;5073385;28;20060;-81
2022/06/14 04:51:44;;;;;;;14.23;3.72;;;14.80;99.90;;;;;;5075448;28;20040;-80
2022/06/14 04:54:45;;;;;;;16.08;3.42;;;15.10;99.90;;;;;;5098221;28;20040;-81
2022/06/14 04:57:15;;;;;;;12.73;4.50;;;15.20;99.90;;;;;;5076420;28;20119;-81
2022/06/14 04:59:49;;;;;;;14.57;4.20;;;15.00;99.90;;;;;;5070445;28;20063;-81
2022/06/14 05:02:49;;;;;;;17.42;3.85;;;14.30;99.90;;;;;;5097261;28;20043;-80
2022/06/14 05:05:36;;;;;;;17.58;4.32;;;13.90;99.90;;;;;;5068541;28;20058;-82
2022/06/14 05:08:28;;;;;;;12.90;3.75;;;13.60;99.90;;;;;;5093257;28;20040;-81
2022/06/14 05:11:14;;;;;;;13.45;4.15;;;13.30;99.90;;;;;;5075116;28;20159;-82
2022/06/14 05:14:08;;;;;;;16.77;4.22;;;13.20;99.90;;;;;;5093281;28;20059;-82
2022/06/14 05:17:07;;;;;;;17.35;3.85;;;13.10;99.90;;;;;;5075002;28;20093;-82
2022/06/14 05:19:36;;;;;;;14.88;4.15;;;13.00;99.90;;;;;;5058296;28;20110;-82
2022/06/14 05:22:45;;;;;;;14.05;3.97;;;13.00;99.90;;;;;;5058106;28;20074;-81
2022/06/14 05:25:12;;;;;;;16.50;3.90;;;12.90;99.90;;;;;;5014171;28;20120;-82
2022/06/14 05:28:28;;;;;;;18.38;4.18;;;12.80;99.90;;;;;;5031275;28;20061;-82
2022/06/14 05:31:29;;;;;;;12.83;3.93;;;12.90;99.90;;;;;;5031375;28;20126;-81
2022/06/14 05:34:03;;;;;;;12.38;4.18;;;13.00;99.90;;;;;;5030712;28;20042;-81
2022/06/14 05:36:59;;;;;;;14.82;4.00;;;13.00;99.90;;;;;;5032626;28;20130;-82
2022/06/14 05:39:35;;;;;;;13.45;3.95;;;13.00;99.90;;;;;;5034018;28;20393;-82
2022/06/14 05:42:15;;;;;;;20.85;4.22;;;13.00;99.90;;;;;;5017064;28;20080;-81
2022/06/14 05:45:18;;;;;;;19.05;4.32;;;13.00;99.90;;;;;;5033486;28;20041;-82
2022/06/14 05:47:50;;;;;;;17.27;4.40;;;13.00;99.90;;;;;;5033533;28;20108;-82
2022/06/14 05:50:26;;;;;;;15.70;4.00;;;13.10;99.90;;;;;;5032854;28;20097;-82
2022/06/14 05:52:58;;;;;;;17.58;3.97;;;13.20;99.90;;;;;;5029843;28;20049;-83
2022/06/14 05:55:41;;;;;;;14.68;4.20;;;13.10;99.90;;;;;;5013775;28;20052;-82
2022/06/14 05:58:20;;;;;;;12.98;4.05;;;13.10;99.90;;;;;;5010608;28;20084;-81
2022/06/14 06:00:52;;;;;;;13.93;3.85;;;13.50;99.90;;;;;;5041804;28;20096;-82
2022/06/14 06:03:32;;;;;;;13.65;3.70;;;13.20;99.90;;;;;;5054389;28;20045;-83
2022/06/14 06:06:27;;;;;;;16.25;3.70;;;13.30;99.90;;;;;;5054174;28;20049;-82
2022/06/14 06:09:22;;;;;;;19.25;3.88;;;13.20;99.90;;;;;;5053974;28;20147;-82
2022/06/14 06:11:59;;;;;;;16.80;4.15;;;13.50;99.90;;;;;;5061552;28;20051;-82
2022/06/14 06:14:39;;;;;;;11.18;3.45;;;13.60;99.90;;;;;;5074363;28;20036;-82
2022/06/14 06:17:16;;;;;;;16.77;3.65;;;13.60;99.90;;;;;;5057299;28;20043;-81
2022/06/14 06:19:56;;;;;;;9.18;3.15;;;13.80;99.90;;;;;;5074103;28;20032;-82
2022/06/14 06:22:34;;;;;;;10.65;3.42;;;13.80;99.90;;;;;;5055180;28;20509;-82
2022/06/14 06:25:26;;;;;;;16.35;3.25;;;13.90;99.90;;;;;;5092656;28;20051;-83
2022/06/14 06:28:44;;;;;;;15.63;3.90;;;14.00;99.90;;;;;;5076422;28;20079;-80
2022/06/14 06:31:21;;;;;;;13.02;3.40;;;14.10;99.90;;;;;;5114187;28;20060;-79
2022/06/14 06:33:51;;;;;;;17.85;3.92;;;14.30;99.90;;;;;;5087435;28;20048;-80
2022/06/14 06:36:35;;;;;;;11.57;2.70;;;14.50;99.90;;;;;;5074252;28;20059;-82
2022/06/14 06:39:26;;;;;;;15.95;2.78;;;14.50;99.90;;;;;;5074836;28;20054;-82
2022/06/14 06:41:57;;;;;;;17.92;2.95;;;14.60;99.90;;;;;;5074015;28;20545;-81
2022/06/14 06:44:32;;;;;;;12.65;2.42;;;14.70;99.90;;;;;;5092164;28;20529;-83
2022/06/14 06:47:07;;;;;;;12.07;2.75;;;14.70;99.90;;;;;;5073987;28;20044;-83
2022/06/14 06:49:42;;;;;;;15.83;2.87;;;14.80;99.90;;;;;;5073584;28;20173;-82
2022/06/14 06:52:10;;;;;;;8.90;2.38;;;14.80;99.90;;;;;;5073727;28;20170;-81
2022/06/14 06:54:56;;;;;;;13.05;2.63;;;14.90;99.90;;;;;;5073989;28;20493;-81
2022/06/14 06:57:26;;;;;;;10.55;1.92;;;15.00;99.90;;;;;;5092120;28;20194;-82
2022/06/14 06:59:54;;;;;;;10.65;2.28;;;15.00;99.90;;;;;;5073339;28;20044;-82
2022/06/14 07:02:25;;;;;;;14.85;2.60;;;15.10;99.90;;;;;;5092254;28;20051;-83
2022/06/14 07:05:03;;;;;;;14.40;2.63;;;15.10;99.90;;;;;;5073349;28;20078;-82
2022/06/14 07:07:53;;;;;;;10.45;2.42;;;15.30;99.90;;;;;;5057092;28;20179;-81
2022/06/14 07:10:43;;;;;;;9.75;2.28;;;15.30;99.90;;;;;;5091839;28;20071;-82
2022/06/14 07:13:27;;;;;;;6.93;2.45;;;15.30;99.90;;;;;;5056757;28;20046;-82
2022/06/14 07:16:09;;;;;;;12.98;2.83;;;15.30;99.90;;;;;;5074199;28;20048;-82
2022/06/14 07:19:22;;;;;;;9.70;2.30;;;15.30;99.90;;;;;;5057215;28;20040;-82
2022/06/14 07:21:57;;;;;;;10.52;1.65;;;15.50;99.90;;;;;;4976447;28;20064;-82
2022/06/14 07:24:52;;;;;;;10.80;2.92;;;15.50;99.90;;;;;;4976815;28;20054;-82
2022/06/14 07:27:23;;;;;;;11.18;2.53;;;15.50;99.90;;;;;;4993370;28;20090;-82
2022/06/14 07:29:58;;;;;;;4.75;1.45;;;15.70;99.90;;;;;;4994644;28;20413;-82
2022/06/14 07:32:25;;;;;;;;;;;15.80;99.90;;;;;;4981120;28;20046;-83
2022/06/14 07:34:53;;;;;;;9.10;1.70;;;15.80;99.90;;;;;;5012982;28;20332;-83
2022/06/14 07:38:00;;;;;;;15.52;1.80;;;15.60;99.90;;;;;;5012668;28;20093;-82
2022/06/14 07:40:46;;;;;;;9.18;2.10;;;15.70;99.90;;;;;;4996527;28;20069;-81
2022/06/14 07:43:40;;;;;;;12.35;2.47;;;15.90;99.90;;;;;;5012488;28;20118;-82
2022/06/14 07:46:11;;;;;;;12.85;2.30;;;16.00;99.90;;;;;;4938141;29;20056;-83
2022/06/14 07:48:41;;;;;;;8.65;1.90;;;16.00;99.90;;;;;;4938355;29;20063;-81
2022/06/14 07:51:13;;;;;;;11.30;2.08;;;16.00;99.90;;;;;;4938145;29;20087;-83
2022/06/14 07:53:48;;;;;;;8.57;1.80;;;16.10;99.90;;;;;;4956721;29;20043;-83
2022/06/14 07:56:22;;;;;;;7.38;1.83;;;16.30;99.90;;;;;;4943107;29;20102;-83
2022/06/14 07:59:00;;;;;;;7.25;1.70;;;16.20;99.90;;;;;;5024149;28;20216;-78
2022/06/14 08:01:51;;;;;;;6.47;2.10;;;16.20;99.90;;;;;;5019059;28;20042;-80
2022/06/14 08:04:26;;;;;;;5.45;1.55;;;16.20;99.90;;;;;;4992333;28;20068;-81
2022/06/14 08:07:15;;;;;;;7.10;1.95;;;16.30;99.90;;;;;;5012808;28;20121;-82
2022/06/14 08:10:14;;;;;;;5.80;1.67;;;16.50;99.90;;;;;;4996433;28;20060;-81
2022/06/14 08:12:49;;;;;;;6.57;1.55;;;16.60;99.90;;;;;;5012381;28;20042;-82
2022/06/14 08:15:29;;;;;;;4.65;1.60;;;16.90;99.90;;;;;;4979807;28;20070;-81
2022/06/14 08:18:05;;;;;;;6.28;1.30;;;16.80;99.90;;;;;;4980035;28;20046;-82
2022/06/14 08:20:58;;;;;;;6.80;1.48;;;16.70;99.90;;;;;;4995307;28;20042;-81
2022/06/14 08:23:46;;;;;;;6.50;1.60;;;16.70;99.90;;;;;;5029175;28;20145;-81
2022/06/14 08:26:24;;;;;;;4.47;1.33;;;16.80;99.90;;;;;;5060163;28;20139;-81
2022/06/14 08:29:05;;;;;;;6.10;1.40;;;16.80;99.90;;;;;;5056451;28;20041;-82
2022/06/14 08:31:43;;;;;;;4.50;1.25;;;17.00;99.90;;;;;;5072586;28;20044;-81
2022/06/14 08:34:17;;;;;;;5.97;1.50;;;17.10;99.90;;;;;;5074047;28;20047;-82
2022/06/14 08:37:05;;;;;;;10.32;1.52;;;17.30;99.90;;;;;;5055735;28;20051;-81
2022/06/14 08:39:37;;;;;;;7.65;1.40;;;17.70;99.90;;;;;;4994984;28;20140;-82
2022/06/14 08:42:36;;;;;;;6.03;1.63;;;17.80;99.90;;;;;;4993799;28;20050;-82
2022/06/14 08:45:01;;;;;;;10.38;1.70;;;17.70;99.90;;;;;;4957239;28;20465;-82
2022/06/14 08:47:59;;;;;;;9.45;1.30;;;17.70;99.90;;;;;;4970054;28;20047;-82
2022/06/14 08:50:48;;;;;;;7.65;1.30;;;17.80;99.90;;;;;;4934783;29;20102;-82
2022/06/14 08:53:14;;;;;;;6.93;1.45;;;17.80;99.90;;;;;;4902760;29;20071;-82
2022/06/14 08:56:08;;;;;;;5.97;1.25;;;18.10;99.90;;;;;;4936993;29;20044;-82
2022/06/14 08:58:47;;;;;;;5.85;1.50;;;18.00;99.90;;;;;;4954353;29;20050;-81
2022/06/14 09:01:37;;;;;;;6.00;1.23;;;18.30;99.90;;;;;;4954497;29;20102;-82
2022/06/14 09:04:24;;;;;;;5.82;1.25;;;18.20;99.90;;;;;;4953572;29;20051;-82
2022/06/14 09:07:09;;;;;;;5.07;1.25;;;17.90;99.90;;;;;;4953446;29;20141;-83
2022/06/14 09:10:06;;;;;;;4.40;1.30;;;17.90;99.90;;;;;;4952921;29;20134;-82
2022/06/14 09:13:05;;;;;;;4.07;1.20;;;18.10;99.90;;;;;;4937341;29;20043;-82
2022/06/14 09:19:26;;;;;;;3.65;1.20;;;18.80;99.90;;;;;;4934261;29;20050;-83
2022/06/14 09:22:22;;;;;;;6.45;1.48;;;19.30;99.90;;;;;;4925821;28;20074;-82
2022/06/14 09:25:04;;;;;;;3.97;1.30;;;19.60;99.90;;;;;;4972309;28;20061;-82
2022/06/14 09:27:46;;;;;;;8.07;1.20;;;19.70;99.90;;;;;;4983430;28;20097;-80
2022/06/14 09:34:14;;;;;;;3.97;1.30;;;20.20;99.90;;;;;;5015049;28;20109;-80
2022/06/14 09:37:17;;;;;;;4.95;1.40;;;20.60;99.90;;;;;;4995906;28;20034;-82
2022/06/14 09:40:16;;;;;;;6.03;1.38;;;20.70;99.90;;;;;;4975804;28;20062;-83
2022/06/14 09:46:56;;;;;;;5.35;1.40;;;19.90;99.90;;;;;;4991041;28;20120;-83
2022/06/14 09:49:39;;;;;;;5.50;1.58;;;19.70;99.90;;;;;;4971502;28;20039;-83
2022/06/14 09:52:26;;;;;;;5.28;1.50;;;19.30;99.90;;;;;;5055033;28;20045;-83
2022/06/14 09:55:17;;;;;;;5.93;1.30;;;19.20;99.90;;;;;;5034198;28;20099;-83
2022/06/14 09:58:01;;;;;;;3.15;1.17;;;19.00;99.90;;;;;;5047535;28;20112;-83
2022/06/14 10:00:45;;;;;;;6.43;1.63;;;18.90;99.90;;;;;;5034329;28;20041;-82
2022/06/14 10:03:45;;;;;;;3.22;1.20;;;19.00;99.90;;;;;;5051174;28;20097;-83
2022/06/14 10:06:29;;;;;;;6.53;1.42;;;19.00;99.90;;;;;;5050604;28;20045;-82
2022/06/14 10:09:11;;;;;;;3.97;1.20;;;19.20;99.90;;;;;;5052348;28;20430;-83
2022/06/14 10:11:54;;;;;;;4.07;1.50;;;19.00;99.90;;;;;;5069927;28;20097;-83
2022/06/14 10:18:14;;;;;;;3.45;1.40;;;19.80;99.90;;;;;;5071799;28;20501;-82
2022/06/14 10:21:14;;;;;;;4.70;1.30;;;19.80;99.90;;;;;;5070302;28;20161;-83
2022/06/14 10:23:51;;;;;;;5.90;1.63;;;19.80;99.90;;;;;;5070882;28;20064;-83
2022/06/14 10:29:52;;;;;;;4.93;1.30;;;19.50;99.90;;;;;;5072912;28;20044;-83
2022/06/14 10:32:23;;;;;;;7.93;1.50;;;19.20;99.90;;;;;;5087527;28;20064;-82
2022/06/14 10:35:07;;;;;;;7.07;1.67;;;19.00;99.90;;;;;;5070379;28;20041;-83
2022/06/14 10:37:47;;;;;;;4.63;1.57;;;18.80;99.90;;;;;;5072648;28;20052;-82
2022/06/14 10:40:28;;;;;;;6.80;1.67;;;18.70;99.90;;;;;;5063296;28;20384;-82
2022/06/14 10:43:05;;;;;;;4.45;2.00;;;18.50;99.90;;;;;;5053214;28;20048;-82
2022/06/14 10:45:37;;;;;;;4.85;1.60;;;18.40;99.90;;;;;;5053873;28;20056;-81
2022/06/14 10:48:41;;;;;;;5.03;1.58;;;18.10;99.90;;;;;;5057510;28;20037;-82
2022/06/14 10:51:25;;;;;;;6.18;1.70;;;17.90;99.90;;;;;;5034573;28;20068;-83
2022/06/14 10:54:15;;;;;;;6.47;1.75;;;17.70;99.90;;;;;;5052404;28;20044;-83
2022/06/14 10:57:06;;;;;;;8.77;2.00;;;17.40;99.90;;;;;;5062278;28;20070;-80
2022/06/14 10:59:43;;;;;;;11.70;1.88;;;17.30;99.90;;;;;;5073598;28;20040;-81
2022/06/14 11:02:32;;;;;;;7.53;1.80;;;17.30;99.90;;;;;;5085799;28;20043;-83
2022/06/14 11:05:14;;;;;;;9.55;2.22;;;17.40;99.90;;;;;;5094607;28;20093;-83
2022/06/14 11:07:56;;;;;;;9.30;2.10;;;17.40;99.90;;;;;;5062401;28;20045;-81
2022/06/14 11:10:34;;;;;;;7.57;2.28;;;17.40;99.90;;;;;;5056784;28;20478;-82
2022/06/14 11:13:10;;;;;;;7.45;2.10;;;17.70;99.90;;;;;;5037606;28;20412;-81
2022/06/14 11:19:41;;;;;;;7.03;2.10;;;17.80;99.90;;;;;;5055875;28;20106;-82
2022/06/14 11:22:15;;;;;;;6.88;2.22;;;17.70;99.90;;;;;;5054312;28;20053;-82
2022/06/14 11:25:10;;;;;;;7.95;2.17;;;17.70;99.90;;;;;;5021940;28;20052;-83
2022/06/14 11:28:11;;;;;;;5.60;2.20;;;18.00;99.90;;;;;;5056260;28;20494;-83
2022/06/14 11:31:15;;;;;;;5.55;2.17;;;18.30;99.90;;;;;;4977473;28;20081;-82
2022/06/14 11:34:09;;;;;;;8.23;2.50;;;18.50;99.90;;;;;;4993598;28;20466;-83
2022/06/14 11:36:46;;;;;;;6.63;1.95;;;18.80;99.90;;;;;;4992892;28;20124;-81
2022/06/14 11:39:24;;;;;;;6.75;1.70;;;18.90;99.90;;;;;;4979575;28;20085;-82
2022/06/14 11:41:51;;;;;;;9.80;2.75;;;19.20;99.90;;;;;;4993304;28;20363;-82
2022/06/14 11:44:42;;;;;;;8.70;2.20;;;19.40;99.90;;;;;;4976990;28;20105;-83
2022/06/14 11:47:39;;;;;;;6.80;2.08;;;19.40;99.90;;;;;;4979421;28;20449;-83
2022/06/14 11:50:19;;;;;;;5.07;2.10;;;19.50;99.90;;;;;;4976889;28;20462;-83
2022/06/14 11:53:16;;;;;;;6.40;2.10;;;19.70;99.90;;;;;;4960611;28;20046;-82
2022/06/14 11:55:55;;;;;;;9.93;2.33;;;19.80;99.90;;;;;;4916317;29;20055;-83
2022/06/14 11:58:34;;;;;;;5.63;2.03;;;19.70;99.90;;;;;;4900442;29;20052;-81
2022/06/14 12:01:35;;;;;;;7.15;2.20;;;20.20;99.90;;;;;;4900400;29;20520;-82
2022/06/14 12:04:15;;;;;;;6.80;2.00;;;20.60;99.90;;;;;;4916131;29;20044;-83
2022/06/14 12:07:08;;;;;;;6.88;2.13;;;21.60;99.90;;;;;;4915086;29;20054;-81
2022/06/14 12:10:10;;;;;;;3.65;1.55;;;21.70;99.90;;;;;;4935001;28;20161;-82
2022/06/14 12:13:02;;;;;;;5.95;1.75;;;21.70;99.90;;;;;;4934796;29;20058;-83
2022/06/14 12:15:54;;;;;;;5.25;1.70;;;21.70;99.90;;;;;;4934183;29;20063;-83
2022/06/14 12:18:24;;;;;;;6.53;1.80;;;21.60;99.90;;;;;;4934662;29;20051;-83
2022/06/14 12:20:59;;;;;;;7.10;1.77;;;21.70;99.90;;;;;;4934305;29;20063;-83
2022/06/14 12:23:31;;;;;;;6.53;1.88;;;21.60;99.90;;;;;;4934528;29;20059;-80
2022/06/14 12:26:34;;;;;;;5.40;2.08;;;21.40;99.90;;;;;;4936715;29;20241;-81
2022/06/14 12:29:24;;;;;;;6.28;1.60;;;21.20;99.90;;;;;;4920935;29;20063;-82
2022/06/14 12:32:19;;;;;;;7.78;1.88;;;21.30;99.90;;;;;;4982297;28;20039;-82
2022/06/14 12:34:53;;;;;;;8.18;2.20;;;21.20;99.90;;;;;;4994687;28;20140;-83
2022/06/14 12:37:40;;;;;;;4.72;1.83;;;21.20;99.90;;;;;;5002527;28;20165;-82
2022/06/14 12:40:21;;;;;;;6.00;1.90;;;21.10;99.90;;;;;;4999791;28;20104;-82
2022/06/14 12:43:05;;;;;;;6.90;2.00;;;21.30;99.90;;;;;;5039435;28;20041;-82
2022/06/14 12:45:42;;;;;;;7.32;2.20;;;21.60;99.90;;;;;;5055917;28;20083;-83
2022/06/14 12:48:20;;;;;;;5.78;2.17;;;21.60;99.90;;;;;;5038802;28;20053;-83
2022/06/14 12:50:54;;;;;;;5.43;2.00;;;21.80;99.90;;;;;;5057580;28;20047;-82
2022/06/14 12:53:39;;;;;;;5.97;2.30;;;22.10;99.90;;;;;;5055571;28;20102;-82
2022/06/14 12:56:36;;;;;;;6.40;2.10;;;22.30;99.90;;;;;;5040218;28;20241;-83
2022/06/14 12:59:24;;;;;;;5.28;1.73;;;22.40;99.90;;;;;;5055431;28;20117;-83
2022/06/14 13:01:59;;;;;;;6.22;1.88;;;22.80;99.90;;;;;;5055040;28;20055;-83
2022/06/14 13:04:33;;;;;;;6.35;1.80;;;22.80;99.90;;;;;;5071551;28;20046;-82
2022/06/14 13:07:22;;;;;;;6.23;2.13;;;22.70;99.90;;;;;;5046232;28;20082;-84
2022/06/14 13:10:27;;;;;;;3.70;1.90;;;22.80;99.90;;;;;;5054820;28;20040;-83
2022/06/14 13:13:09;;;;;;;5.55;1.65;;;22.80;99.90;;;;;;5054930;28;20127;-83
2022/06/14 13:16:09;;;;;;;8.93;2.00;;;22.40;99.90;;;;;;5055005;28;20123;-83
2022/06/14 13:19:02;;;;;;;6.28;1.77;;;22.40;99.90;;;;;;5055043;28;20052;-83
2022/06/14 13:21:50;;;;;;;5.60;1.70;;;22.50;99.90;;;;;;5038096;28;20075;-83
2022/06/14 13:24:36;;;;;;;7.32;1.95;;;22.70;99.90;;;;;;5089047;28;20478;-82
2022/06/14 13:27:24;;;;;;;6.05;2.00;;;22.70;99.90;;;;;;5091763;28;20040;-82
2022/06/14 13:30:04;;;;;;;10.02;2.05;;;22.80;99.90;;;;;;5074871;28;20105;-83
2022/06/14 13:32:48;;;;;;;9.15;2.13;;;22.70;99.90;;;;;;5075246;28;20039;-83
2022/06/14 13:35:28;;;;;;;5.53;1.90;;;21.80;99.90;;;;;;5074696;28;20473;-83
2022/06/14 13:38:00;;;;;;;5.88;1.80;;;21.50;99.90;;;;;;5074592;28;20062;-83
2022/06/14 13:40:34;;;;;;;6.25;2.17;;;20.90;99.90;;;;;;5074573;28;20040;-83
2022/06/14 13:43:02;;;;;;;;;;;20.80;99.90;;;;;;5075086;28;20048;-83
2022/06/14 13:45:45;;;;;;;5.28;1.70;;;20.40;99.90;;;;;;5092868;28;20002;-83
2022/06/14 13:48:27;;;;;;;3.53;1.67;;;20.20;99.90;;;;;;5075165;28;20075;-83
2022/06/14 13:51:27;;;;;;;5.80;1.90;;;20.10;99.90;;;;;;5074168;28;20078;-83
2022/06/14 13:54:14;;;;;;;4.20;1.90;;;20.10;99.90;;;;;;5074599;28;20051;-80
2022/06/14 13:57:13;;;;;;;7.10;2.10;;;19.90;99.90;;;;;;5077317;28;20032;-82
2022/06/14 14:00:05;;;;;;;6.85;1.90;;;20.00;99.90;;;;;;5088351;28;20067;-82
2022/06/14 14:02:49;;;;;;;5.85;1.95;;;20.40;99.90;;;;;;5079589;28;20020;-82
2022/06/14 14:05:38;;;;;;;6.30;1.92;;;20.50;99.90;;;;;;5058896;28;20050;-83
2022/06/14 14:08:42;;;;;;;7.40;1.95;;;20.60;99.90;;;;;;5074682;28;20443;-83
2022/06/14 14:11:40;;;;;;;5.85;1.90;;;20.80;99.90;;;;;;5073830;28;20394;-83
2022/06/14 14:14:56;;;;;;;5.88;1.80;;;20.80;99.90;;;;;;5046796;28;20564;-81
2022/06/14 14:17:54;;;;;;;4.78;1.90;;;21.00;99.90;;;;;;4993834;28;20046;-83
2022/06/14 14:20:29;;;;;;;7.70;2.10;;;21.20;99.90;;;;;;4977434;28;20050;-83
2022/06/14 14:22:57;;;;;;;4.80;1.65;;;21.10;99.90;;;;;;4993107;28;20058;-82
2022/06/14 14:25:45;;;;;;;4.70;2.17;;;21.30;99.90;;;;;;4993795;28;20042;-82
2022/06/14 14:28:36;;;;;;;7.85;2.17;;;21.10;99.90;;;;;;4977221;28;20045;-82
2022/06/14 14:34:57;;;;;;;5.93;1.95;;;21.40;99.90;;;;;;5009623;28;20073;-82